createdAt,value
2018-12-30T00:01:18.084Z,92.90
2018-12-30T00:03:46.908Z,92.80
2018-12-30T00:06:15.940Z,92.90
2018-12-30T00:08:44.994Z,92.80
2018-12-30T00:11:13.578Z,92.90
2018-12-30T00:13:42.151Z,92.90
2018-12-30T00:16:10.706Z,92.80
2018-12-30T00:18:39.758Z,92.80
2018-12-30T00:21:09.183Z,92.70
2018-12-30T00:23:37.988Z,92.70
2018-12-30T00:26:06.541Z,92.80
2018-12-30T00:28:35.118Z,92.80
2018-12-30T00:31:03.667Z,92.50
2018-12-30T00:33:32.638Z,92.50
2018-12-30T00:36:01.193Z,92.50
2018-12-30T00:38:29.772Z,92.50
2018-12-30T00:40:58.338Z,92.50
2018-12-30T00:43:26.964Z,92.40
2018-12-30T00:45:55.519Z,92.50
2018-12-30T00:48:24.100Z,92.50
2018-12-30T00:50:52.656Z,92.70
2018-12-30T00:53:21.244Z,92.70
2018-12-30T00:55:49.812Z,92.80
2018-12-30T00:58:18.383Z,92.70
2018-12-30T01:00:46.932Z,92.70
2018-12-30T01:03:15.503Z,92.50
2018-12-30T01:05:44.187Z,92.60
2018-12-30T01:08:12.749Z,92.60
2018-12-30T01:10:41.320Z,92.60
2018-12-30T01:13:09.875Z,92.50
2018-12-30T01:15:38.819Z,92.60
2018-12-30T01:18:07.388Z,92.70
2018-12-30T01:20:35.955Z,92.90
2018-12-30T01:23:04.526Z,92.70
2018-12-30T01:25:33.097Z,92.80
2018-12-30T01:28:01.648Z,92.90
2018-12-30T01:30:30.222Z,92.90
2018-12-30T01:32:58.780Z,93.00
2018-12-30T01:35:27.344Z,92.90
2018-12-30T01:37:55.907Z,92.90
2018-12-30T01:40:24.486Z,93.00
2018-12-30T01:42:54.038Z,93.00
2018-12-30T01:45:22.606Z,92.80
2018-12-30T01:47:51.170Z,92.70
2018-12-30T01:50:19.735Z,92.50
2018-12-30T01:52:48.284Z,92.30
2018-12-30T01:55:16.858Z,92.20
2018-12-30T01:57:45.417Z,92.10
2018-12-30T02:00:14.014Z,91.90
2018-12-30T02:02:42.564Z,91.70
2018-12-30T02:05:11.150Z,91.70
2018-12-30T02:07:39.709Z,91.50
2018-12-30T02:10:08.653Z,91.40
2018-12-30T02:12:37.200Z,91.20
2018-12-30T02:15:05.823Z,90.80
2018-12-30T02:17:34.520Z,90.60
2018-12-30T02:20:03.121Z,90.80
2018-12-30T02:22:32.316Z,90.70
2018-12-30T02:25:00.872Z,90.00
2018-12-30T02:27:29.955Z,90.00
2018-12-30T02:29:58.508Z,89.20
2018-12-30T02:32:27.068Z,89.20
2018-12-30T02:34:56.010Z,89.40
2018-12-30T02:37:24.651Z,89.40
2018-12-30T02:39:53.226Z,88.50
2018-12-30T02:42:21.801Z,88.40
2018-12-30T02:44:50.394Z,88.40
2018-12-30T02:47:19.533Z,88.40
2018-12-30T02:49:48.107Z,87.50
2018-12-30T02:52:16.678Z,87.80
2018-12-30T02:54:45.230Z,87.40
2018-12-30T02:57:13.819Z,87.20
2018-12-30T02:59:42.746Z,86.50
2018-12-30T03:02:11.404Z,86.40
2018-12-30T03:04:40.008Z,86.80
2018-12-30T03:07:08.584Z,86.40
2018-12-30T03:09:37.156Z,86.80
2018-12-30T03:12:06.202Z,87.10
2018-12-30T03:14:34.752Z,86.40
2018-12-30T03:17:04.250Z,86.50
2018-12-30T03:19:32.847Z,86.90
2018-12-30T03:22:01.473Z,87.00
2018-12-30T03:24:30.052Z,87.10
2018-12-30T03:26:58.612Z,86.80
2018-12-30T03:29:27.190Z,87.00
2018-12-30T03:31:55.749Z,86.40
2018-12-30T03:34:24.343Z,86.60
2018-12-30T03:36:52.938Z,86.60
2018-12-30T03:39:22.202Z,86.20
2018-12-30T03:41:50.786Z,85.80
2018-12-30T03:44:19.359Z,86.40
2018-12-30T03:46:47.931Z,86.30
2018-12-30T03:49:16.510Z,85.90
2018-12-30T03:51:45.068Z,86.50
2018-12-30T03:54:13.645Z,86.50
2018-12-30T03:56:42.200Z,86.40
2018-12-30T03:59:10.774Z,86.30
2018-12-30T04:01:39.972Z,87.20
2018-12-30T04:04:08.535Z,86.50
2018-12-30T04:06:37.084Z,86.30
2018-12-30T04:09:07.134Z,86.60
2018-12-30T04:11:35.681Z,86.80
2018-12-30T04:14:04.246Z,86.30
2018-12-30T04:16:32.821Z,86.20
2018-12-30T04:19:01.396Z,86.60
2018-12-30T04:21:29.945Z,86.50
2018-12-30T04:23:58.659Z,85.80
2018-12-30T04:26:27.341Z,86.00
2018-12-30T04:28:56.024Z,86.10
2018-12-30T04:31:24.578Z,86.40
2018-12-30T04:33:53.137Z,86.00
2018-12-30T04:36:21.728Z,86.20
2018-12-30T04:38:50.310Z,86.60
2018-12-30T04:41:18.877Z,86.80
2018-12-30T04:43:47.438Z,86.90
2018-12-30T04:46:16.038Z,87.00
2018-12-30T04:48:44.606Z,86.90
2018-12-30T04:51:13.188Z,87.00
2018-12-30T04:53:41.750Z,87.00
2018-12-30T04:56:12.111Z,86.90
2018-12-30T04:58:40.680Z,87.10
2018-12-30T05:01:09.249Z,87.30
2018-12-30T05:03:37.800Z,87.20
2018-12-30T05:06:06.383Z,87.20
2018-12-30T05:08:34.935Z,87.40
2018-12-30T05:11:03.513Z,87.50
2018-12-30T05:13:32.090Z,87.40
2018-12-30T05:16:00.673Z,87.90
2018-12-30T05:18:30.048Z,87.20
2018-12-30T05:20:58.621Z,87.40
2018-12-30T05:23:27.177Z,86.90
2018-12-30T05:25:55.751Z,87.20
2018-12-30T05:28:24.340Z,87.10
2018-12-30T05:30:52.924Z,86.80
2018-12-30T05:33:21.498Z,86.60
2018-12-30T05:35:51.288Z,86.40
2018-12-30T05:38:20.006Z,86.90
2018-12-30T05:40:48.582Z,86.80
2018-12-30T05:43:17.145Z,86.60
2018-12-30T05:45:45.725Z,86.80
2018-12-30T05:48:14.288Z,86.70
2018-12-30T05:50:42.842Z,86.60
2018-12-30T05:53:11.408Z,86.70
2018-12-30T05:55:39.973Z,86.70
2018-12-30T05:58:08.540Z,85.60
2018-12-30T06:00:37.160Z,86.10
2018-12-30T06:03:05.699Z,86.20
2018-12-30T06:05:34.262Z,86.40
2018-12-30T06:08:02.837Z,86.30
2018-12-30T06:10:31.375Z,85.60
2018-12-30T06:12:59.971Z,85.50
2018-12-30T06:15:28.609Z,85.60
2018-12-30T06:17:57.169Z,85.80
2018-12-30T06:20:25.723Z,86.20
2018-12-30T06:22:54.331Z,85.50
2018-12-30T06:25:23.073Z,85.70
2018-12-30T06:27:51.632Z,86.10
2018-12-30T06:30:20.207Z,86.20
2018-12-30T06:32:50.169Z,86.30
2018-12-30T06:35:18.916Z,86.30
2018-12-30T06:37:47.484Z,86.30
2018-12-30T06:40:16.032Z,86.40
2018-12-30T06:42:44.613Z,86.30
2018-12-30T06:45:13.171Z,86.60
2018-12-30T06:47:42.046Z,86.60
2018-12-30T06:50:10.597Z,86.50
2018-12-30T06:52:39.155Z,86.30
2018-12-30T06:55:07.719Z,86.40
2018-12-30T06:57:36.298Z,87.00
2018-12-30T07:00:05.323Z,87.10
2018-12-30T07:02:33.892Z,87.00
2018-12-30T07:05:02.478Z,87.10
2018-12-30T07:07:31.058Z,87.10
2018-12-30T07:09:59.634Z,86.90
2018-12-30T07:12:28.196Z,87.50
2018-12-30T07:14:56.773Z,87.10
2018-12-30T07:17:25.333Z,86.70
2018-12-30T07:19:54.225Z,86.80
2018-12-30T07:22:22.768Z,86.80
2018-12-30T07:24:51.364Z,86.70
2018-12-30T07:27:19.926Z,86.60
2018-12-30T07:29:48.507Z,86.80
2018-12-30T07:32:17.064Z,86.80
2018-12-30T07:34:45.668Z,86.90
2018-12-30T07:37:14.969Z,86.40
2018-12-30T07:39:43.544Z,86.30
2018-12-30T07:42:12.097Z,86.50
2018-12-30T07:44:40.667Z,86.70
2018-12-30T07:47:09.239Z,86.40
2018-12-30T07:49:37.824Z,86.60
2018-12-30T07:52:06.371Z,86.70
2018-12-30T07:54:34.936Z,86.90
2018-12-30T07:57:03.524Z,86.90
2018-12-30T07:59:33.057Z,87.20
2018-12-30T08:02:01.605Z,87.40
2018-12-30T08:04:30.179Z,86.80
2018-12-30T08:06:58.729Z,86.70
2018-12-30T08:09:27.275Z,86.90
2018-12-30T08:11:55.875Z,87.00
2018-12-30T08:14:24.419Z,87.10
2018-12-30T08:16:53.008Z,86.80
2018-12-30T08:19:21.558Z,87.00
2018-12-30T08:21:50.132Z,86.80
2018-12-30T08:24:18.706Z,86.80
2018-12-30T08:26:47.290Z,87.40
2018-12-30T08:29:15.858Z,87.10
2018-12-30T08:31:44.431Z,86.70
2018-12-30T08:34:12.989Z,86.80
2018-12-30T08:36:41.564Z,86.50
2018-12-30T08:39:10.126Z,86.70
2018-12-30T08:41:39.635Z,86.60
2018-12-30T08:44:11.102Z,86.50
2018-12-30T08:46:40.666Z,86.70
2018-12-30T08:49:10.277Z,86.60
2018-12-30T08:51:38.881Z,85.90
2018-12-30T08:54:07.528Z,85.40
2018-12-30T08:56:36.125Z,85.70
2018-12-30T08:59:06.640Z,85.50
2018-12-30T09:01:35.233Z,85.30
2018-12-30T09:04:03.823Z,84.60
2018-12-30T09:06:32.425Z,85.30
2018-12-30T09:09:01.018Z,85.90
2018-12-30T09:11:31.480Z,84.40
2018-12-30T09:14:00.118Z,83.50
2018-12-30T09:16:28.710Z,83.40
2018-12-30T09:18:57.281Z,83.80
2018-12-30T09:21:25.886Z,82.40
2018-12-30T09:23:54.472Z,81.60
2018-12-30T09:26:23.053Z,82.30
2018-12-30T09:28:51.629Z,80.60
2018-12-30T09:31:20.242Z,80.70
2018-12-30T09:33:49.002Z,80.40
2018-12-30T09:36:17.621Z,79.60
2018-12-30T09:38:46.188Z,81.10
2018-12-30T09:41:14.948Z,80.20
2018-12-30T09:43:43.536Z,80.20
2018-12-30T09:46:12.240Z,79.90
2018-12-30T09:48:43.202Z,81.50
2018-12-30T09:51:11.795Z,81.30
2018-12-30T09:53:45.108Z,81.30
2018-12-30T09:56:10.664Z,81.70
2018-12-30T09:58:39.252Z,82.30
2018-12-30T10:01:07.840Z,82.30
2018-12-30T10:03:36.431Z,82.00
2018-12-30T10:06:05.004Z,82.20
2018-12-30T10:08:33.627Z,81.60
2018-12-30T10:11:02.206Z,82.40
2018-12-30T10:13:30.776Z,82.30
2018-12-30T10:15:59.368Z,83.00
2018-12-30T10:18:28.143Z,82.90
2018-12-30T10:20:56.725Z,82.90
2018-12-30T10:23:26.209Z,83.20
2018-12-30T10:25:54.813Z,83.70
2018-12-30T10:28:23.504Z,83.40
2018-12-30T10:30:52.075Z,83.60
2018-12-30T10:33:20.681Z,84.00
2018-12-30T10:35:49.274Z,83.80
2018-12-30T10:38:17.844Z,83.60
2018-12-30T10:40:49.818Z,83.10
2018-12-30T10:43:18.083Z,82.80
2018-12-30T10:45:46.680Z,83.10
2018-12-30T10:48:15.258Z,83.10
2018-12-30T10:50:43.868Z,82.90
2018-12-30T10:53:12.423Z,82.70
2018-12-30T10:55:41.103Z,83.40
2018-12-30T10:58:09.833Z,83.30
2018-12-30T11:00:38.402Z,82.90
2018-12-30T11:03:08.039Z,82.60
2018-12-30T11:05:36.686Z,82.40
2018-12-30T11:08:05.273Z,82.20
2018-12-30T11:10:33.824Z,82.10
2018-12-30T11:13:02.395Z,82.20
2018-12-30T11:15:31.027Z,81.40
2018-12-30T11:17:59.592Z,80.70
2018-12-30T11:20:28.187Z,80.70
2018-12-30T11:22:56.749Z,80.70
2018-12-30T11:25:25.329Z,80.70
2018-12-30T11:27:53.912Z,80.60
2018-12-30T11:30:22.509Z,81.30
2018-12-30T11:32:51.066Z,81.00
2018-12-30T11:35:19.657Z,81.20
2018-12-30T11:37:48.282Z,81.40
2018-12-30T11:40:16.943Z,81.40
2018-12-30T11:42:45.509Z,80.50
2018-12-30T11:45:14.092Z,81.00
2018-12-30T11:47:42.674Z,81.80
2018-12-30T11:50:11.297Z,81.70
2018-12-30T11:52:39.891Z,81.10
2018-12-30T11:55:08.457Z,81.20
2018-12-30T11:57:37.128Z,81.00
2018-12-30T12:00:07.181Z,81.00
2018-12-30T12:02:35.750Z,80.40
2018-12-30T12:05:04.317Z,80.50
2018-12-30T12:07:32.886Z,80.80
2018-12-30T12:10:01.490Z,80.70
2018-12-30T12:12:30.079Z,81.00
2018-12-30T12:14:58.664Z,81.30
2018-12-30T12:17:27.243Z,81.60
2018-12-30T12:19:56.080Z,81.20
2018-12-30T12:22:24.703Z,82.10
2018-12-30T12:24:54.839Z,81.60
2018-12-30T12:27:23.455Z,81.70
2018-12-30T12:29:52.040Z,82.00
2018-12-30T12:32:20.655Z,81.60
2018-12-30T12:34:49.228Z,81.40
2018-12-30T12:37:17.803Z,81.80
2018-12-30T12:39:46.352Z,81.90
2018-12-30T12:42:14.939Z,82.00
2018-12-30T12:44:43.493Z,81.90
2018-12-30T12:47:12.053Z,82.10
2018-12-30T12:49:40.632Z,82.30
2018-12-30T12:52:09.404Z,82.10
2018-12-30T12:54:38.031Z,82.50
2018-12-30T12:57:06.626Z,82.70
2018-12-30T12:59:35.206Z,82.70
2018-12-30T13:02:03.789Z,83.10
2018-12-30T13:04:32.340Z,83.50
2018-12-30T13:07:00.904Z,83.50
2018-12-30T13:09:29.469Z,83.20
2018-12-30T13:11:58.016Z,83.10
2018-12-30T13:14:26.603Z,83.10
2018-12-30T13:16:55.176Z,82.80
2018-12-30T13:19:23.732Z,82.30
2018-12-30T13:21:52.457Z,82.40
2018-12-30T13:24:21.050Z,82.10
2018-12-30T13:26:49.618Z,82.30
2018-12-30T13:29:18.255Z,82.10
2018-12-30T13:31:46.884Z,82.70
2018-12-30T13:34:15.459Z,82.90
2018-12-30T13:36:44.046Z,83.10
2018-12-30T13:39:12.597Z,83.20
2018-12-30T13:41:41.156Z,83.40
2018-12-30T13:44:10.143Z,83.00
2018-12-30T13:46:38.726Z,83.10
2018-12-30T13:49:07.304Z,83.30
2018-12-30T13:51:36.071Z,83.30
2018-12-30T13:54:04.709Z,83.40
2018-12-30T13:56:33.312Z,83.60
2018-12-30T13:59:01.865Z,83.60
2018-12-30T14:01:30.433Z,83.50
2018-12-30T14:03:59.013Z,83.50
2018-12-30T14:06:28.216Z,83.60
2018-12-30T14:08:56.795Z,83.70
2018-12-30T14:11:25.348Z,83.60
2018-12-30T14:13:53.920Z,83.70
2018-12-30T14:16:22.505Z,84.00
2018-12-30T14:18:51.087Z,84.00
2018-12-30T14:21:19.696Z,83.70
2018-12-30T14:23:48.248Z,83.90
2018-12-30T14:26:16.808Z,84.00
2018-12-30T14:28:46.941Z,84.20
2018-12-30T14:31:15.505Z,84.80
2018-12-30T14:33:44.064Z,84.90
2018-12-30T14:36:12.647Z,84.80
2018-12-30T14:38:41.218Z,85.10
2018-12-30T14:41:09.789Z,85.20
2018-12-30T14:43:38.334Z,85.00
2018-12-30T14:46:07.112Z,85.10
2018-12-30T14:48:35.664Z,85.10
2018-12-30T14:51:04.248Z,85.40
2018-12-30T14:53:32.824Z,85.50
2018-12-30T14:56:01.433Z,85.60
2018-12-30T14:58:31.029Z,85.90
2018-12-30T15:00:59.599Z,85.60
2018-12-30T15:03:28.167Z,85.70
2018-12-30T15:05:56.726Z,86.00
2018-12-30T15:08:26.009Z,85.90
2018-12-30T15:10:54.583Z,85.70
2018-12-30T15:13:24.090Z,85.60
2018-12-30T15:15:52.742Z,85.80
2018-12-30T15:18:21.283Z,86.00
2018-12-30T15:20:50.732Z,86.00
2018-12-30T15:23:19.296Z,86.00
2018-12-30T15:25:47.910Z,86.10
2018-12-30T15:28:16.506Z,86.20
2018-12-30T15:30:45.542Z,86.50
2018-12-30T15:33:14.268Z,86.60
2018-12-30T15:35:42.836Z,86.50
2018-12-30T15:38:11.403Z,86.40
2018-12-30T15:40:41.024Z,86.70
2018-12-30T15:43:09.603Z,86.70
2018-12-30T15:45:38.192Z,86.90
2018-12-30T15:48:06.777Z,87.00
2018-12-30T15:50:35.379Z,87.10
2018-12-30T15:53:03.962Z,87.20
2018-12-30T15:55:32.505Z,87.90
2018-12-30T15:58:01.099Z,87.30
2018-12-30T16:00:29.648Z,87.30
2018-12-30T16:02:58.311Z,87.20
2018-12-30T16:05:26.906Z,87.20
2018-12-30T16:07:55.494Z,87.30
2018-12-30T16:10:24.168Z,87.70
2018-12-30T16:12:52.740Z,88.10
2018-12-30T16:15:21.347Z,88.30
2018-12-30T16:17:49.915Z,88.70
2018-12-30T16:20:18.473Z,88.50
2018-12-30T16:22:47.062Z,88.60
2018-12-30T16:25:17.808Z,88.40
2018-12-30T16:27:46.385Z,88.60
2018-12-30T16:30:15.012Z,88.70
2018-12-30T16:32:43.606Z,88.60
2018-12-30T16:35:12.176Z,88.40
2018-12-30T16:37:40.775Z,88.30
2018-12-30T16:40:09.337Z,88.40
2018-12-30T16:42:37.908Z,88.30
2018-12-30T16:45:06.959Z,88.30
2018-12-30T16:47:41.876Z,88.40
2018-12-30T16:50:06.505Z,88.40
2018-12-30T16:52:35.092Z,88.50
2018-12-30T16:55:03.672Z,88.50
2018-12-30T16:57:33.176Z,88.70
2018-12-30T17:00:01.782Z,88.70
2018-12-30T17:02:30.362Z,88.70
2018-12-30T17:04:59.002Z,88.80
2018-12-30T17:07:27.544Z,89.20
2018-12-30T17:09:56.136Z,88.80
2018-12-30T17:12:24.720Z,89.00
2018-12-30T17:14:53.291Z,89.00
2018-12-30T17:17:21.905Z,89.20
2018-12-30T17:19:51.066Z,89.20
2018-12-30T17:22:19.716Z,89.40
2018-12-30T17:24:48.282Z,89.90
2018-12-30T17:27:16.844Z,89.40
2018-12-30T17:29:45.444Z,89.40
2018-12-30T17:32:14.075Z,89.60
2018-12-30T17:34:42.843Z,89.90
2018-12-30T17:37:11.520Z,89.80
2018-12-30T17:39:40.095Z,89.80
2018-12-30T17:42:08.787Z,90.10
2018-12-30T17:44:37.432Z,90.10
2018-12-30T17:47:06.089Z,90.10
2018-12-30T17:49:34.686Z,90.10
2018-12-30T17:52:03.303Z,90.00
2018-12-30T17:54:31.883Z,90.10
2018-12-30T17:57:00.471Z,90.10
2018-12-30T17:59:35.093Z,90.50
2018-12-30T18:02:03.677Z,90.10
2018-12-30T18:04:32.268Z,90.10
2018-12-30T18:07:00.840Z,90.10
2018-12-30T18:09:29.456Z,90.00
2018-12-30T18:11:58.050Z,90.40
2018-12-30T18:14:26.645Z,90.10
2018-12-30T18:16:55.213Z,90.20
2018-12-30T18:19:23.812Z,90.20
2018-12-30T18:21:52.388Z,90.50
2018-12-30T18:24:21.048Z,90.50
2018-12-30T18:26:49.632Z,90.60
2018-12-30T18:29:18.268Z,90.60
2018-12-30T18:31:46.937Z,90.80
2018-12-30T18:34:15.596Z,90.80
2018-12-30T18:36:44.215Z,91.10
2018-12-30T18:39:12.838Z,91.20
2018-12-30T18:41:41.493Z,91.40
2018-12-30T18:44:10.089Z,91.50
2018-12-30T18:46:38.699Z,91.50
2018-12-30T18:49:07.405Z,91.60
2018-12-30T18:51:36.017Z,91.70
2018-12-30T18:54:04.606Z,91.70
2018-12-30T18:56:33.308Z,91.80
2018-12-30T18:59:01.876Z,91.80
2018-12-30T19:01:30.460Z,91.80
2018-12-30T19:03:59.020Z,91.80
2018-12-30T19:06:27.592Z,91.80
2018-12-30T19:08:56.152Z,91.70
2018-12-30T19:11:24.732Z,91.60
2018-12-30T19:13:53.309Z,91.50
2018-12-30T19:16:22.177Z,91.50
2018-12-30T19:18:50.736Z,91.50
2018-12-30T19:21:19.311Z,91.50
2018-12-30T19:23:47.896Z,91.60
2018-12-30T19:26:16.683Z,91.50
2018-12-30T19:28:45.266Z,91.50
2018-12-30T19:31:13.824Z,91.60
2018-12-30T19:33:42.404Z,91.60
2018-12-30T19:36:11.001Z,91.60
2018-12-30T19:38:40.290Z,91.50
2018-12-30T19:41:08.848Z,91.50
2018-12-30T19:43:37.486Z,91.40
2018-12-30T19:46:06.724Z,91.40
2018-12-30T19:48:35.309Z,91.20
2018-12-30T19:51:03.947Z,91.20
2018-12-30T19:53:32.548Z,91.10
2018-12-30T19:56:01.116Z,91.20
2018-12-30T19:58:29.716Z,91.10
2018-12-30T20:01:00.012Z,91.20
2018-12-30T20:03:28.575Z,91.30
2018-12-30T20:05:59.155Z,91.30
2018-12-30T20:08:27.726Z,91.40
2018-12-30T20:10:56.291Z,91.10
2018-12-30T20:13:24.882Z,91.20
2018-12-30T20:15:53.469Z,91.40
2018-12-30T20:18:22.108Z,91.40
2018-12-30T20:20:50.879Z,91.60
2018-12-30T20:23:19.470Z,91.60
2018-12-30T20:25:48.028Z,91.80
2018-12-30T20:28:16.609Z,92.10
2018-12-30T20:30:49.880Z,92.10
2018-12-30T20:33:18.493Z,92.30
2018-12-30T20:35:47.073Z,92.30
2018-12-30T20:38:15.655Z,92.30
2018-12-30T20:40:44.216Z,92.10
2018-12-30T20:43:12.809Z,92.20
2018-12-30T20:45:41.402Z,92.10
2018-12-30T20:48:12.215Z,92.10
2018-12-30T20:50:40.824Z,92.50
2018-12-30T20:53:09.387Z,92.40
2018-12-30T20:55:38.005Z,92.20
2018-12-30T20:58:06.805Z,92.30
2018-12-30T21:00:35.356Z,92.20
2018-12-30T21:03:03.937Z,92.20
2018-12-30T21:05:32.516Z,92.50
2018-12-30T21:08:01.084Z,92.50
2018-12-30T21:10:29.684Z,92.70
2018-12-30T21:12:58.256Z,92.70
2018-12-30T21:15:26.864Z,92.90
2018-12-30T21:17:56.989Z,92.90
2018-12-30T21:20:25.680Z,93.00
2018-12-30T21:22:54.339Z,93.00
2018-12-30T21:25:22.937Z,93.20
2018-12-30T21:27:51.532Z,93.50
2018-12-30T21:30:20.108Z,93.20
2018-12-30T21:32:48.793Z,93.20
2018-12-30T21:35:17.860Z,93.70
2018-12-30T21:37:47.016Z,93.50
2018-12-30T21:40:17.177Z,93.50
2018-12-30T21:42:45.772Z,93.50
2018-12-30T21:45:14.336Z,93.80
2018-12-30T21:47:42.900Z,94.50
2018-12-30T21:50:11.461Z,94.30
2018-12-30T21:52:40.145Z,94.50
2018-12-30T21:55:08.820Z,94.50
2018-12-30T21:57:37.402Z,95.00
2018-12-30T22:00:07.556Z,95.10
2018-12-30T22:02:37.471Z,95.40
2018-12-30T22:05:06.470Z,95.80
2018-12-30T22:07:38.050Z,95.90
2018-12-30T22:10:07.518Z,96.00
2018-12-30T22:12:36.163Z,96.00
2018-12-30T22:15:05.316Z,96.20
2018-12-30T22:17:33.912Z,96.40
2018-12-30T22:20:02.580Z,96.50
2018-12-30T22:22:31.180Z,96.60
2018-12-30T22:25:00.236Z,96.80
2018-12-30T22:27:28.958Z,96.90
2018-12-30T22:29:58.212Z,96.80
2018-12-30T22:32:27.375Z,97.00
2018-12-30T22:34:56.119Z,97.00
2018-12-30T22:37:24.907Z,97.10
2018-12-30T22:39:55.564Z,97.10
2018-12-30T22:42:32.748Z,97.30
2018-12-30T22:44:56.180Z,97.30
2018-12-30T22:47:26.354Z,97.30
2018-12-30T22:49:55.185Z,97.40
2018-12-30T22:52:23.814Z,97.30
2018-12-30T22:54:52.417Z,97.40
2018-12-30T22:57:21.037Z,97.40
2018-12-30T22:59:49.616Z,97.30
2018-12-30T23:02:18.249Z,97.40
2018-12-30T23:04:46.855Z,97.40
2018-12-30T23:07:15.508Z,97.40
2018-12-30T23:09:44.097Z,97.50
2018-12-30T23:12:12.644Z,97.50
2018-12-30T23:14:41.335Z,97.50
2018-12-30T23:17:10.019Z,97.50
2018-12-30T23:19:38.685Z,97.40
2018-12-30T23:22:07.252Z,97.50
2018-12-30T23:24:37.066Z,97.60
2018-12-30T23:27:05.708Z,97.70
2018-12-30T23:29:34.297Z,97.50
2018-12-30T23:32:02.854Z,97.40
2018-12-30T23:34:31.424Z,97.40
2018-12-30T23:37:00.041Z,97.40
2018-12-30T23:39:28.614Z,97.30
2018-12-30T23:41:57.177Z,97.30
2018-12-30T23:44:25.760Z,97.20
2018-12-30T23:46:54.358Z,97.10
2018-12-30T23:49:22.943Z,97.10
2018-12-30T23:51:52.199Z,97.10
2018-12-30T23:54:20.772Z,97.00
2018-12-30T23:56:49.328Z,97.10
2018-12-30T23:59:17.896Z,96.90
